createdAt,value
2023-02-07T00:00:53.165Z,73.74
2023-02-07T00:03:19.912Z,73.83
2023-02-07T00:05:46.724Z,73.51
2023-02-07T00:08:15.098Z,73.88
2023-02-07T00:10:41.819Z,73.61
2023-02-07T00:13:08.550Z,73.29
2023-02-07T00:15:35.413Z,73.43
2023-02-07T00:18:02.236Z,72.76
2023-02-07T00:20:28.967Z,73.04
2023-02-07T00:22:55.650Z,72.65
2023-02-07T00:25:22.594Z,72.42
2023-02-07T00:27:49.376Z,71.39
2023-02-07T00:30:16.362Z,71.65
2023-02-07T00:32:43.127Z,70.88
2023-02-07T00:35:09.910Z,70.85
2023-02-07T00:37:36.712Z,70.79
2023-02-07T00:40:04.899Z,70.85
2023-02-07T00:42:31.643Z,71.08
2023-02-07T00:44:58.419Z,70.67
2023-02-07T00:47:25.964Z,70.44
2023-02-07T00:49:52.644Z,69.87
2023-02-07T00:52:19.306Z,69.49
2023-02-07T00:54:46.036Z,67.23
2023-02-07T00:57:12.777Z,67.47
2023-02-07T00:59:39.965Z,67.73
2023-02-07T01:02:06.757Z,66.16
2023-02-07T01:04:34.751Z,66.17
2023-02-07T01:07:01.469Z,66.11
2023-02-07T01:09:29.081Z,65.94
2023-02-07T01:11:55.804Z,66.21
2023-02-07T01:14:24.997Z,65.87
2023-02-07T01:16:51.945Z,65.92
2023-02-07T01:19:18.791Z,65.22
2023-02-07T01:21:45.517Z,65.53
2023-02-07T01:24:12.397Z,65.68
2023-02-07T01:26:39.870Z,65.65
2023-02-07T01:29:07.659Z,65.42
2023-02-07T01:31:35.273Z,65.76
2023-02-07T01:34:04.955Z,65.25
2023-02-07T01:36:32.356Z,65.99
2023-02-07T01:38:59.198Z,66.13
2023-02-07T01:41:26.686Z,65.76
2023-02-07T01:44:09.053Z,64.68
2023-02-07T01:46:36.972Z,65.14
2023-02-07T01:49:12.391Z,65.23
2023-02-07T01:51:41.738Z,65.21
2023-02-07T01:54:10.104Z,64.70
2023-02-07T01:56:38.397Z,64.95
2023-02-07T01:59:06.231Z,65.08
2023-02-07T02:01:33.302Z,64.32
2023-02-07T02:04:00.241Z,64.24
2023-02-07T02:06:29.736Z,64.80
2023-02-07T02:09:00.842Z,64.17
2023-02-07T02:11:30.557Z,63.75
2023-02-07T02:14:30.983Z,63.83
2023-02-07T02:17:01.719Z,64.13
2023-02-07T02:20:21.822Z,62.80
2023-02-07T02:23:10.478Z,63.99
2023-02-07T02:25:51.625Z,63.65
2023-02-07T02:28:42.284Z,64.27
2023-02-07T02:31:53.361Z,63.32
2023-02-07T02:34:41.560Z,63.71
2023-02-07T02:37:35.836Z,63.57
2023-02-07T02:40:28.014Z,63.84
2023-02-07T02:43:13.811Z,63.85
2023-02-07T02:45:45.683Z,64.66
2023-02-07T02:48:12.895Z,64.52
2023-02-07T02:50:39.913Z,64.83
2023-02-07T02:53:06.664Z,64.87
2023-02-07T02:55:43.649Z,64.91
2023-02-07T02:58:30.759Z,64.49
2023-02-07T03:01:13.243Z,63.77
2023-02-07T03:03:50.552Z,64.30
2023-02-07T03:06:52.648Z,64.29
2023-02-07T03:09:38.183Z,64.11
2023-02-07T03:12:21.346Z,64.52
2023-02-07T03:15:08.621Z,64.26
2023-02-07T03:17:39.667Z,64.81
2023-02-07T03:20:23.632Z,64.14
2023-02-07T03:22:51.683Z,64.66
2023-02-07T03:25:20.539Z,64.29
2023-02-07T03:27:48.496Z,64.16
2023-02-07T03:30:17.677Z,64.90
2023-02-07T03:32:48.561Z,64.73
2023-02-07T03:35:36.225Z,64.12
2023-02-07T03:38:04.020Z,64.75
2023-02-07T03:40:35.543Z,64.21
2023-02-07T03:43:15.532Z,63.97
2023-02-07T03:45:42.665Z,64.73
2023-02-07T03:48:09.752Z,64.70
2023-02-07T03:50:36.578Z,64.62
2023-02-07T03:53:03.344Z,64.76
2023-02-07T03:55:30.124Z,64.35
2023-02-07T03:57:56.897Z,64.82
2023-02-07T04:00:23.649Z,64.85
2023-02-07T04:02:50.314Z,64.58
2023-02-07T04:05:17.048Z,64.71
2023-02-07T04:07:43.780Z,64.96
2023-02-07T04:10:11.500Z,64.54
2023-02-07T04:15:25.606Z,64.82
2023-02-07T04:17:52.257Z,65.38
2023-02-07T04:20:19.088Z,65.57
2023-02-07T04:22:45.796Z,66.66
2023-02-07T04:25:12.490Z,67.60
2023-02-07T04:27:39.150Z,68.20
2023-02-07T04:30:06.196Z,68.11
2023-02-07T04:32:33.062Z,67.08
2023-02-07T04:35:00.097Z,67.27
2023-02-07T04:37:26.766Z,68.39
2023-02-07T04:39:53.550Z,67.19
2023-02-07T04:42:20.220Z,66.83
2023-02-07T04:44:46.878Z,65.82
2023-02-07T04:47:13.703Z,66.26
2023-02-07T04:49:40.418Z,65.67
2023-02-07T04:52:07.256Z,66.12
2023-02-07T04:54:33.914Z,66.51
2023-02-07T04:57:00.631Z,66.32
2023-02-07T04:59:27.350Z,65.69
2023-02-07T05:01:54.304Z,65.21
2023-02-07T05:04:23.489Z,65.14
2023-02-07T05:06:50.305Z,65.21
2023-02-07T05:09:17.049Z,64.42
2023-02-07T05:11:43.840Z,64.48
2023-02-07T05:14:10.732Z,64.78
2023-02-07T05:16:37.717Z,65.05
2023-02-07T05:19:04.739Z,64.57
2023-02-07T05:21:31.456Z,64.62
2023-02-07T05:23:58.403Z,64.80
2023-02-07T05:26:25.040Z,64.84
2023-02-07T05:28:51.739Z,64.51
2023-02-07T05:31:18.438Z,64.89
2023-02-07T05:33:45.198Z,64.94
2023-02-07T05:36:11.942Z,65.16
2023-02-07T05:38:39.214Z,65.17
2023-02-07T05:41:05.916Z,64.81
2023-02-07T05:43:32.659Z,65.48
2023-02-07T05:45:59.535Z,65.08
2023-02-07T05:48:26.224Z,65.78
2023-02-07T05:50:52.875Z,66.09
2023-02-07T05:53:19.843Z,65.89
2023-02-07T05:55:46.789Z,66.23
2023-02-07T05:58:13.394Z,66.23
2023-02-07T06:00:40.439Z,65.88
2023-02-07T06:03:07.278Z,65.51
2023-02-07T06:05:35.108Z,65.70
2023-02-07T06:08:01.779Z,65.50
2023-02-07T06:10:28.526Z,65.28
2023-02-07T06:12:55.577Z,65.01
2023-02-07T06:15:22.271Z,65.09
2023-02-07T06:17:49.772Z,65.03
2023-02-07T06:20:16.736Z,65.14
2023-02-07T06:22:43.566Z,65.60
2023-02-07T06:25:11.801Z,65.13
2023-02-07T06:27:41.640Z,65.02
2023-02-07T06:30:10.277Z,65.07
2023-02-07T06:32:37.055Z,64.94
2023-02-07T06:35:05.328Z,64.76
2023-02-07T06:37:31.995Z,64.97
2023-02-07T06:39:58.631Z,64.64
2023-02-07T06:42:25.354Z,64.59
2023-02-07T06:44:52.033Z,65.12
2023-02-07T06:47:20.710Z,64.96
2023-02-07T06:49:47.565Z,64.97
2023-02-07T06:52:14.342Z,65.38
2023-02-07T06:54:41.128Z,64.90
2023-02-07T06:57:07.849Z,65.25
2023-02-07T06:59:34.526Z,65.28
2023-02-07T07:02:01.230Z,65.24
2023-02-07T07:04:27.934Z,64.81
2023-02-07T07:06:54.692Z,64.92
2023-02-07T07:09:21.374Z,65.14
2023-02-07T07:11:48.002Z,65.40
2023-02-07T07:14:14.647Z,66.19
2023-02-07T07:16:41.400Z,65.73
2023-02-07T07:19:08.310Z,65.51
2023-02-07T07:21:35.350Z,65.62
2023-02-07T07:24:01.976Z,65.87
2023-02-07T07:26:39.479Z,65.61
2023-02-07T07:29:13.602Z,65.79
2023-02-07T07:31:40.446Z,65.21
2023-02-07T07:34:07.125Z,65.41
2023-02-07T07:36:33.766Z,65.22
2023-02-07T07:39:00.535Z,65.28
2023-02-07T07:41:27.150Z,64.76
2023-02-07T07:43:55.120Z,64.65
2023-02-07T07:46:22.171Z,64.71
2023-02-07T07:48:48.954Z,64.59
2023-02-07T07:51:15.616Z,64.25
2023-02-07T07:53:42.241Z,65.05
2023-02-07T07:56:08.904Z,64.83
2023-02-07T07:58:35.540Z,65.15
2023-02-07T08:01:02.363Z,64.87
2023-02-07T08:03:29.094Z,64.25
2023-02-07T08:05:55.856Z,65.09
2023-02-07T08:08:22.592Z,64.80
2023-02-07T08:10:49.398Z,65.17
2023-02-07T08:13:16.998Z,64.91
2023-02-07T08:15:43.929Z,64.26
2023-02-07T08:18:10.566Z,64.42
2023-02-07T08:20:37.845Z,65.06
2023-02-07T08:23:04.749Z,64.53
2023-02-07T08:25:31.583Z,64.76
2023-02-07T08:27:58.389Z,65.51
2023-02-07T08:30:25.876Z,64.95
2023-02-07T08:32:52.595Z,65.36
2023-02-07T08:35:19.289Z,65.32
2023-02-07T08:37:45.948Z,64.65
2023-02-07T08:40:12.863Z,64.86
2023-02-07T08:42:39.542Z,65.38
2023-02-07T08:45:06.749Z,65.56
2023-02-07T08:47:33.562Z,64.65
2023-02-07T08:50:00.192Z,64.84
2023-02-07T08:52:28.916Z,65.38
2023-02-07T08:54:56.224Z,65.44
2023-02-07T08:57:25.811Z,64.75
2023-02-07T08:59:53.469Z,64.81
2023-02-07T09:02:20.400Z,64.45
2023-02-07T09:04:47.533Z,64.44
2023-02-07T09:07:14.512Z,64.74
2023-02-07T09:09:41.255Z,64.81
2023-02-07T09:12:08.153Z,64.20
2023-02-07T09:14:34.755Z,64.98
2023-02-07T09:17:01.350Z,64.46
2023-02-07T09:19:28.096Z,63.50
2023-02-07T09:21:54.849Z,64.10
2023-02-07T09:24:22.001Z,63.65
2023-02-07T09:26:48.673Z,64.05
2023-02-07T09:29:16.104Z,64.01
2023-02-07T09:31:43.429Z,63.92
2023-02-07T09:34:10.349Z,63.82
2023-02-07T09:36:37.169Z,64.10
2023-02-07T09:39:04.546Z,63.72
2023-02-07T09:41:36.845Z,62.97
2023-02-07T09:44:14.658Z,62.68
2023-02-07T09:46:41.403Z,62.81
2023-02-07T09:49:34.931Z,62.40
2023-02-07T09:52:03.676Z,63.14
2023-02-07T09:54:35.919Z,62.49
2023-02-07T09:57:06.862Z,61.64
2023-02-07T09:59:53.751Z,61.02
2023-02-07T10:02:26.390Z,61.05
2023-02-07T10:04:55.800Z,61.25
2023-02-07T10:07:22.484Z,60.78
2023-02-07T10:09:49.136Z,61.28
2023-02-07T10:12:36.937Z,61.34
2023-02-07T10:15:18.648Z,60.21
2023-02-07T10:18:03.298Z,61.27
2023-02-07T10:20:32.025Z,61.17
2023-02-07T10:23:07.446Z,61.22
2023-02-07T10:25:55.751Z,59.55
2023-02-07T10:28:45.086Z,60.41
2023-02-07T10:31:16.463Z,60.76
2023-02-07T10:34:10.954Z,60.30
2023-02-07T10:36:41.964Z,60.71
2023-02-07T10:39:19.013Z,59.48
2023-02-07T10:41:45.706Z,61.08
2023-02-07T10:44:21.926Z,60.32
2023-02-07T10:47:02.238Z,60.36
2023-02-07T10:49:31.816Z,60.81
2023-02-07T10:52:37.841Z,60.17
2023-02-07T10:55:08.586Z,60.77
2023-02-07T10:57:35.621Z,60.65
2023-02-07T11:00:15.243Z,61.12
2023-02-07T11:02:51.935Z,60.00
2023-02-07T11:05:18.538Z,60.06
2023-02-07T11:08:01.611Z,60.15
2023-02-07T11:10:34.294Z,60.81
2023-02-07T11:13:01.407Z,60.23
2023-02-07T11:15:32.841Z,59.10
2023-02-07T11:17:59.617Z,58.47
2023-02-07T11:20:29.594Z,58.82
2023-02-07T11:22:57.436Z,59.67
2023-02-07T11:25:29.697Z,58.17
2023-02-07T11:27:56.750Z,57.41
2023-02-07T11:30:23.998Z,58.81
2023-02-07T11:32:59.349Z,56.99
2023-02-07T11:35:26.169Z,56.61
2023-02-07T11:37:59.305Z,56.56
2023-02-07T11:40:42.370Z,56.31
2023-02-07T11:43:08.927Z,54.99
2023-02-07T11:45:36.853Z,55.52
2023-02-07T11:48:04.356Z,55.59
2023-02-07T11:50:35.597Z,55.60
2023-02-07T11:53:02.610Z,55.68
2023-02-07T11:55:39.925Z,55.61
2023-02-07T11:58:35.743Z,54.16
2023-02-07T12:01:07.413Z,53.23
2023-02-07T12:03:47.942Z,52.17
2023-02-07T12:06:17.888Z,53.48
2023-02-07T12:08:45.062Z,52.18
2023-02-07T12:11:21.533Z,54.40
2023-02-07T12:13:52.464Z,55.27
2023-02-07T12:16:25.023Z,55.89
2023-02-07T12:18:59.213Z,52.06
2023-02-07T12:21:34.740Z,53.56
2023-02-07T12:24:04.562Z,53.36
2023-02-07T12:26:31.215Z,54.34
2023-02-07T12:29:25.696Z,52.60
2023-02-07T12:32:12.962Z,53.26
2023-02-07T12:35:30.163Z,52.52
2023-02-07T12:38:12.003Z,53.71
2023-02-07T12:40:58.974Z,51.49
2023-02-07T12:43:31.221Z,52.96
2023-02-07T12:46:00.750Z,51.75
2023-02-07T12:48:46.670Z,54.02
2023-02-07T12:51:17.052Z,53.67
2023-02-07T12:54:08.398Z,51.98
2023-02-07T12:57:00.796Z,52.92
2023-02-07T12:59:41.169Z,52.14
2023-02-07T13:02:36.098Z,52.51
2023-02-07T13:05:37.238Z,52.48
2023-02-07T13:08:25.054Z,52.34
2023-02-07T13:11:26.235Z,52.19
2023-02-07T13:14:17.490Z,51.97
2023-02-07T13:17:07.391Z,52.51
2023-02-07T13:19:40.202Z,52.71
2023-02-07T13:22:29.600Z,51.49
2023-02-07T13:24:56.743Z,53.81
2023-02-07T13:27:24.568Z,51.49
2023-02-07T13:29:51.656Z,52.09
2023-02-07T13:32:24.317Z,52.14
2023-02-07T13:34:55.660Z,51.06
2023-02-07T13:37:26.946Z,52.26
2023-02-07T13:40:03.861Z,51.66
2023-02-07T13:42:41.796Z,51.34
2023-02-07T13:45:46.358Z,51.59
2023-02-07T13:48:21.758Z,52.56
2023-02-07T13:50:58.470Z,52.74
2023-02-07T13:53:54.064Z,53.26
2023-02-07T13:56:53.123Z,52.97
2023-02-07T13:59:41.160Z,52.46
2023-02-07T14:02:17.820Z,52.14
2023-02-07T14:04:58.718Z,52.59
2023-02-07T14:07:29.684Z,53.38
2023-02-07T14:09:58.555Z,53.92
2023-02-07T14:12:28.983Z,54.03
2023-02-07T14:15:03.788Z,52.48
2023-02-07T14:17:30.803Z,53.01
2023-02-07T14:19:58.660Z,52.37
2023-02-07T14:22:50.092Z,52.42
2023-02-07T14:25:22.944Z,52.73
2023-02-07T14:27:52.285Z,51.95
2023-02-07T14:30:32.987Z,51.90
2023-02-07T14:33:13.796Z,51.37
2023-02-07T14:36:04.366Z,51.77
2023-02-07T14:39:00.158Z,50.93
2023-02-07T14:41:30.486Z,52.24
2023-02-07T14:44:09.172Z,52.54
2023-02-07T14:46:42.189Z,51.97
2023-02-07T14:49:20.003Z,51.48
2023-02-07T14:51:51.249Z,52.41
2023-02-07T14:54:29.934Z,51.65
2023-02-07T14:57:05.090Z,52.43
2023-02-07T14:59:44.802Z,52.29
2023-02-07T15:02:39.565Z,52.32
2023-02-07T15:05:25.385Z,51.80
2023-02-07T15:08:04.018Z,51.98
2023-02-07T15:10:36.384Z,51.43
2023-02-07T15:13:05.753Z,51.26
2023-02-07T15:15:47.288Z,51.10
2023-02-07T15:18:16.204Z,51.53
2023-02-07T15:20:42.827Z,51.62
2023-02-07T15:23:13.648Z,51.62
2023-02-07T15:25:41.483Z,52.23
2023-02-07T15:28:28.946Z,51.79
2023-02-07T15:31:03.350Z,52.21
2023-02-07T15:33:36.864Z,52.18
2023-02-07T15:36:06.012Z,52.38
2023-02-07T15:38:32.796Z,51.98
2023-02-07T15:40:59.560Z,51.54
2023-02-07T15:43:31.663Z,51.42
2023-02-07T15:46:07.797Z,49.61
2023-02-07T15:48:46.900Z,50.56
2023-02-07T15:51:13.924Z,50.99
2023-02-07T15:53:40.697Z,51.76
2023-02-07T15:56:07.611Z,51.36
2023-02-07T15:58:36.099Z,51.38
2023-02-07T16:01:07.944Z,50.98
2023-02-07T16:03:40.940Z,51.20
2023-02-07T16:06:15.428Z,51.67
2023-02-07T16:08:42.689Z,51.91
2023-02-07T16:11:18.462Z,52.18
2023-02-07T16:13:51.722Z,53.14
2023-02-07T16:16:24.913Z,52.90
2023-02-07T16:18:52.296Z,53.57
2023-02-07T16:21:22.165Z,53.89
2023-02-07T16:23:51.259Z,54.01
2023-02-07T16:26:20.892Z,54.25
2023-02-07T16:28:47.814Z,54.72
2023-02-07T16:31:14.630Z,54.88
2023-02-07T16:33:41.320Z,55.12
2023-02-07T16:36:14.242Z,55.36
2023-02-07T16:38:43.911Z,55.26
2023-02-07T16:41:31.964Z,56.46
2023-02-07T16:44:00.525Z,56.33
2023-02-07T16:46:27.189Z,56.08
2023-02-07T16:48:54.020Z,56.17
2023-02-07T16:51:20.682Z,56.28
2023-02-07T16:53:47.327Z,56.44
2023-02-07T16:56:27.322Z,57.13
2023-02-07T16:58:54.058Z,56.94
2023-02-07T17:01:21.921Z,56.89
2023-02-07T17:03:48.780Z,56.97
2023-02-07T17:06:23.928Z,57.48
2023-02-07T17:08:51.991Z,57.40
2023-02-07T17:11:24.830Z,57.83
2023-02-07T17:13:55.906Z,58.12
2023-02-07T17:16:23.818Z,57.95
2023-02-07T17:18:53.503Z,57.97
2023-02-07T17:21:22.338Z,58.22
2023-02-07T17:23:49.353Z,58.20
2023-02-07T17:26:23.490Z,59.91
2023-02-07T17:28:51.290Z,60.82
2023-02-07T17:31:18.116Z,60.79
2023-02-07T17:33:44.854Z,59.48
2023-02-07T17:36:12.332Z,59.38
2023-02-07T17:38:45.211Z,59.26
2023-02-07T17:41:12.946Z,58.37
2023-02-07T17:43:41.591Z,58.52
2023-02-07T17:46:18.082Z,58.66
2023-02-07T17:49:00.480Z,57.86
2023-02-07T17:51:28.746Z,58.29
2023-02-07T17:53:55.958Z,58.86
2023-02-07T17:56:30.583Z,58.07
2023-02-07T17:58:59.785Z,58.18
2023-02-07T18:01:26.498Z,57.84
2023-02-07T18:03:54.410Z,58.04
2023-02-07T18:06:23.746Z,58.21
2023-02-07T18:08:50.863Z,57.85
2023-02-07T18:11:18.163Z,57.50
2023-02-07T18:13:46.694Z,57.32
2023-02-07T18:16:18.648Z,57.15
2023-02-07T18:18:45.420Z,57.81
2023-02-07T18:21:13.665Z,57.33
2023-02-07T18:23:42.903Z,57.06
2023-02-07T18:26:15.151Z,56.75
2023-02-07T18:28:43.021Z,56.75
2023-02-07T18:31:18.611Z,56.79
2023-02-07T18:33:45.639Z,57.21
2023-02-07T18:36:12.506Z,57.15
2023-02-07T18:38:39.781Z,57.24
2023-02-07T18:41:11.164Z,56.63
2023-02-07T18:43:38.639Z,57.40
2023-02-07T18:46:10.505Z,57.14
2023-02-07T18:48:37.413Z,57.26
2023-02-07T18:51:08.296Z,56.97
2023-02-07T18:53:38.484Z,56.90
2023-02-07T18:56:07.331Z,56.86
2023-02-07T18:58:37.234Z,56.79
2023-02-07T19:01:11.698Z,57.06
2023-02-07T19:03:38.654Z,56.48
2023-02-07T19:06:08.086Z,56.82
2023-02-07T19:08:35.227Z,56.72
2023-02-07T19:11:04.136Z,56.95
2023-02-07T19:13:32.872Z,56.75
2023-02-07T19:16:20.484Z,57.05
2023-02-07T19:18:47.819Z,57.02
2023-02-07T19:21:18.053Z,57.15
2023-02-07T19:23:44.875Z,58.18
2023-02-07T19:26:11.577Z,59.39
2023-02-07T19:28:39.078Z,57.90
2023-02-07T19:31:13.401Z,57.30
2023-02-07T19:33:40.932Z,58.26
2023-02-07T19:36:10.297Z,58.00
2023-02-07T19:38:37.374Z,57.80
2023-02-07T19:41:04.766Z,58.33
2023-02-07T19:43:31.898Z,59.72
2023-02-07T19:45:58.948Z,59.14
2023-02-07T19:48:26.115Z,59.21
2023-02-07T19:51:00.766Z,58.40
2023-02-07T19:53:28.481Z,58.16
2023-02-07T19:56:01.991Z,57.62
2023-02-07T19:58:30.288Z,58.28
2023-02-07T20:00:57.662Z,58.31
2023-02-07T20:03:25.164Z,58.33
2023-02-07T20:05:52.943Z,59.23
2023-02-07T20:08:20.676Z,60.77
2023-02-07T20:10:48.389Z,60.09
2023-02-07T20:13:15.296Z,60.46
2023-02-07T20:15:43.619Z,61.09
2023-02-07T20:18:11.385Z,61.04
2023-02-07T20:20:42.772Z,61.72
2023-02-07T20:23:10.110Z,62.02
2023-02-07T20:25:38.274Z,62.12
2023-02-07T20:28:06.789Z,62.46
2023-02-07T20:30:34.698Z,62.36
2023-02-07T20:33:01.413Z,62.42
2023-02-07T20:35:28.318Z,60.82
2023-02-07T20:37:54.966Z,61.42
2023-02-07T20:40:21.736Z,61.90
2023-02-07T20:42:48.420Z,60.43
2023-02-07T20:45:15.130Z,59.84
2023-02-07T20:47:41.847Z,61.57
2023-02-07T20:50:09.112Z,62.58
2023-02-07T20:52:37.665Z,62.99
2023-02-07T20:55:05.622Z,62.69
2023-02-07T20:57:32.414Z,63.26
2023-02-07T20:59:59.280Z,63.11
2023-02-07T21:02:26.115Z,63.08
2023-02-07T21:04:52.875Z,62.71
2023-02-07T21:07:19.647Z,62.74
2023-02-07T21:09:46.675Z,62.89
2023-02-07T21:12:13.376Z,63.62
2023-02-07T21:14:40.374Z,63.87
2023-02-07T21:17:07.398Z,63.27
2023-02-07T21:19:35.620Z,63.30
2023-02-07T21:22:02.378Z,62.66
2023-02-07T21:24:29.161Z,62.64
2023-02-07T21:26:56.259Z,62.62
2023-02-07T21:29:24.192Z,63.08
2023-02-07T21:31:51.415Z,63.22
2023-02-07T21:34:21.113Z,62.98
2023-02-07T21:36:49.100Z,64.03
2023-02-07T21:39:16.407Z,63.90
2023-02-07T21:41:45.106Z,64.21
2023-02-07T21:44:12.931Z,64.25
2023-02-07T21:46:41.586Z,64.89
2023-02-07T21:49:14.324Z,64.44
2023-02-07T21:51:41.720Z,64.88
2023-02-07T21:54:08.446Z,65.63
2023-02-07T21:56:37.844Z,65.65
2023-02-07T21:59:11.831Z,64.47
2023-02-07T22:01:39.235Z,64.24
2023-02-07T22:04:10.346Z,64.24
2023-02-07T22:06:38.518Z,64.63
2023-02-07T22:09:05.411Z,65.34
2023-02-07T22:11:34.159Z,65.61
2023-02-07T22:14:01.298Z,65.26
2023-02-07T22:16:29.157Z,64.74
2023-02-07T22:18:58.043Z,64.55
2023-02-07T22:21:27.131Z,64.89
2023-02-07T22:23:54.271Z,65.31
2023-02-07T22:26:21.893Z,65.01
2023-02-07T22:28:48.944Z,64.23
2023-02-07T22:31:19.194Z,65.06
2023-02-07T22:33:46.802Z,65.00
2023-02-07T22:36:21.406Z,66.21
2023-02-07T22:38:48.580Z,65.94
2023-02-07T22:41:15.825Z,66.79
2023-02-07T22:43:42.503Z,66.80
2023-02-07T22:46:13.107Z,67.35
2023-02-07T22:48:40.147Z,67.42
2023-02-07T22:51:30.451Z,66.94
2023-02-07T22:53:59.147Z,67.45
2023-02-07T22:56:26.554Z,67.00
2023-02-07T22:58:54.074Z,66.63
2023-02-07T23:01:40.477Z,66.44
2023-02-07T23:04:11.329Z,66.80
2023-02-07T23:06:38.449Z,66.93
2023-02-07T23:09:05.528Z,67.10
2023-02-07T23:11:34.458Z,66.88
2023-02-07T23:14:01.792Z,66.75
2023-02-07T23:16:29.540Z,67.51
2023-02-07T23:18:58.329Z,67.37
2023-02-07T23:21:26.741Z,67.21
2023-02-07T23:23:54.230Z,67.24
2023-02-07T23:26:23.238Z,67.22
2023-02-07T23:28:51.247Z,67.48
2023-02-07T23:31:20.286Z,67.75
2023-02-07T23:33:47.443Z,66.53
2023-02-07T23:36:16.724Z,66.99
2023-02-07T23:38:45.318Z,66.73
2023-02-07T23:41:12.031Z,67.78
2023-02-07T23:43:38.812Z,68.58
2023-02-07T23:46:06.403Z,68.50
2023-02-07T23:48:36.968Z,68.58
2023-02-07T23:51:06.257Z,68.13
2023-02-07T23:53:33.391Z,68.45
2023-02-07T23:56:00.475Z,68.11
2023-02-07T23:58:27.779Z,68.58
